Time;durP1;ratioP1;P1;durP2;ratioP2;P2;SDS_P1;SDS_P2;PMS_P1;PMS_P2;Temp;Humidity;BMP_temperature;BMP_pressure;BME280_temperature;BME280_humidity;BME280_pressure;Samples;Min_cycle;Max_cycle;Signal;HPM_P1;HPM_P2
2023/08/05 00:01:44;;;;;;;7.88;4.53;;;16.90;99.90;;;;;;4933039;29;20038;-74
2023/08/05 00:04:10;;;;;;;7.78;4.10;;;16.80;99.90;;;;;;4912520;29;20107;-75
2023/08/05 00:06:35;;;;;;;8.13;4.65;;;16.90;99.90;;;;;;4944853;29;20039;-75
2023/08/05 00:09:04;;;;;;;8.70;3.78;;;16.80;99.90;;;;;;4945042;29;20306;-75
2023/08/05 00:11:30;;;;;;;;;;;16.80;99.90;;;;;;4946072;29;20307;-76
2023/08/05 00:13:55;;;;;;;7.38;4.40;;;16.80;99.90;;;;;;4945071;29;19962;-76
2023/08/05 00:16:24;;;;;;;8.85;4.43;;;16.80;99.90;;;;;;4945469;29;20309;-74
2023/08/05 00:18:53;;;;;;;6.97;4.00;;;16.70;99.90;;;;;;4944930;29;20039;-76
2023/08/05 00:21:20;;;;;;;7.13;3.88;;;16.80;99.90;;;;;;4945286;29;20032;-75
2023/08/05 00:23:46;;;;;;;6.95;4.10;;;16.80;99.90;;;;;;4945224;29;20082;-75
2023/08/05 00:26:12;;;;;;;5.18;3.78;;;16.80;99.90;;;;;;4945188;29;20048;-75
2023/08/05 00:28:37;;;;;;;6.38;3.85;;;16.70;99.90;;;;;;4928094;29;20110;-75
2023/08/05 11:21:46;;;;;;;2.42;1.15;;;24.60;76.70;;;;;;5369887;23;20079;-73
2023/08/05 11:24:18;;;;;;;2.75;1.38;;;24.70;75.90;;;;;;4945904;29;20054;-73
2023/08/05 11:26:44;;;;;;;2.70;1.20;;;24.60;75.60;;;;;;4941885;29;20036;-73
2023/08/05 11:29:14;;;;;;;2.45;1.10;;;24.70;75.30;;;;;;4925834;29;20032;-74
2023/08/05 11:31:53;;;;;;;2.50;1.20;;;24.90;74.90;;;;;;4909272;29;20313;-74
2023/08/05 11:34:22;;;;;;;2.78;1.10;;;25.00;74.20;;;;;;4926804;29;20040;-74
2023/08/05 11:36:55;;;;;;;3.20;1.25;;;25.10;75.20;;;;;;4940700;29;20046;-73
2023/08/05 11:39:25;;;;;;;3.10;1.23;;;25.20;74.50;;;;;;4926717;29;20116;-74
2023/08/05 11:41:52;;;;;;;2.33;1.20;;;25.30;75.00;;;;;;4926387;29;20078;-73
2023/08/05 11:44:20;;;;;;;3.35;0.98;;;25.40;74.50;;;;;;4926269;29;20299;-74
2023/08/05 11:46:46;;;;;;;10.00;8.32;;;25.60;73.80;;;;;;4927083;29;20032;-73
2023/08/05 11:49:16;;;;;;;3.83;2.03;;;25.70;72.80;;;;;;4944496;29;20051;-73
2023/08/05 11:51:53;;;;;;;2.03;1.00;;;25.80;73.10;;;;;;4944803;29;20027;-73
2023/08/05 11:54:31;;;;;;;2.60;1.20;;;26.20;72.30;;;;;;4943940;29;20035;-74
2023/08/05 11:56:57;;;;;;;3.20;0.95;;;27.30;71.20;;;;;;4945469;29;20038;-73
2023/08/05 12:00:02;;;;;;;2.75;1.00;;;28.90;67.90;;;;;;4945292;29;20019;-75
2023/08/05 12:02:36;;;;;;;2.22;1.10;;;29.10;66.90;;;;;;4917258;29;20087;-74
2023/08/05 12:05:02;;;;;;;1.70;1.00;;;29.40;65.20;;;;;;4945266;29;20054;-74
2023/08/05 12:07:29;;;;;;;3.85;1.30;;;28.50;65.90;;;;;;4944985;29;20053;-73
2023/08/05 12:10:07;;;;;;;2.88;1.30;;;28.70;66.50;;;;;;4945298;29;20036;-75
2023/08/05 12:12:34;;;;;;;2.75;1.17;;;28.30;66.50;;;;;;4945146;29;20046;-73
2023/08/05 12:15:18;;;;;;;3.17;1.20;;;29.40;65.30;;;;;;4944694;29;20296;-74
2023/08/05 12:17:48;;;;;;;1.98;0.70;;;30.80;63.80;;;;;;4944081;29;20096;-75
2023/08/05 12:20:25;;;;;;;2.35;0.95;;;31.30;62.60;;;;;;4945280;29;20368;-75
2023/08/05 12:22:52;;;;;;;3.17;1.07;;;31.30;63.00;;;;;;4958328;29;20047;-74
2023/08/05 12:25:18;;;;;;;2.92;1.25;;;31.50;61.70;;;;;;4963264;29;20332;-74
2023/08/05 12:27:44;;;;;;;2.50;1.00;;;31.50;61.40;;;;;;4934162;29;20074;-75
2023/08/05 12:30:11;;;;;;;5.43;1.10;;;32.00;61.20;;;;;;4962051;29;20158;-74
2023/08/05 12:32:37;;;;;;;2.60;0.98;;;32.90;60.90;;;;;;4963866;28;20229;-74
2023/08/05 12:35:07;;;;;;;2.05;1.00;;;32.60;58.60;;;;;;4964671;29;20031;-73
2023/08/05 12:37:58;;;;;;;2.17;0.90;;;32.70;58.60;;;;;;4953915;29;20765;-74
2023/08/05 12:40:26;;;;;;;2.30;1.00;;;31.60;59.90;;;;;;4967923;29;20029;-73
2023/08/05 12:42:53;;;;;;;5.55;1.25;;;30.70;64.10;;;;;;4968320;29;20043;-73
2023/08/05 12:45:29;;;;;;;2.22;1.10;;;30.10;63.70;;;;;;4968340;28;20039;-72
2023/08/05 12:47:55;;;;;;;2.22;1.20;;;28.80;63.30;;;;;;4951206;29;20074;-73
2023/08/05 12:51:08;;;;;;;;;;;;;;;;;;;;;
2023/08/05 12:54:00;;;;;;;3.70;1.60;;;27.10;67.60;;;;;;4968177;29;20078;-72
2023/08/05 12:56:26;;;;;;;2.42;1.23;;;27.00;67.60;;;;;;4950648;29;20039;-74
2023/08/05 12:59:09;;;;;;;3.30;1.40;;;26.50;67.90;;;;;;4968213;29;20102;-74
2023/08/05 13:01:41;;;;;;;2.97;1.50;;;26.40;70.80;;;;;;4950826;29;20026;-73
2023/08/05 13:07:47;;;;;;;4.70;1.40;;;25.80;69.50;;;;;;4968127;29;20078;-74
2023/08/05 13:10:31;;;;;;;3.53;1.50;;;25.80;70.40;;;;;;4967130;29;20051;-73
2023/08/05 13:13:00;;;;;;;4.40;1.50;;;25.70;71.30;;;;;;4950656;29;20091;-77
2023/08/05 13:15:25;;;;;;;3.28;1.65;;;24.90;71.00;;;;;;4967130;29;20031;-72
2023/08/05 13:17:51;;;;;;;3.03;1.50;;;24.70;72.10;;;;;;4966883;29;20038;-73
2023/08/05 13:20:17;;;;;;;3.45;1.48;;;24.50;72.30;;;;;;4967574;28;20394;-73
2023/08/05 13:22:42;;;;;;;3.13;1.60;;;24.20;72.60;;;;;;4965695;29;20059;-71
2023/08/05 13:25:08;;;;;;;4.15;1.77;;;24.20;74.50;;;;;;4967658;29;20070;-73
2023/08/05 13:27:34;;;;;;;2.92;1.50;;;24.00;74.60;;;;;;4962667;29;20111;-72
2023/08/05 13:30:00;;;;;;;5.65;1.50;;;24.20;74.30;;;;;;4948408;29;20043;-73
2023/08/05 13:32:25;;;;;;;3.20;1.63;;;24.50;72.60;;;;;;4962623;29;20047;-73
2023/08/05 13:34:52;;;;;;;5.60;1.65;;;24.50;72.70;;;;;;4952203;29;20024;-73
2023/08/05 13:37:18;;;;;;;3.65;1.52;;;24.80;72.80;;;;;;4956161;29;20055;-73
2023/08/05 13:39:50;;;;;;;2.22;1.27;;;24.90;72.10;;;;;;4947757;29;20031;-72
2023/08/05 13:42:16;;;;;;;2.60;1.50;;;25.40;71.80;;;;;;4965364;29;20055;-73
2023/08/05 13:44:42;;;;;;;2.25;1.17;;;26.10;69.50;;;;;;4966542;28;20202;-72
2023/08/05 13:47:08;;;;;;;3.65;1.50;;;26.00;70.40;;;;;;4967154;29;20050;-72
2023/08/05 13:49:33;;;;;;;2.25;1.15;;;26.60;68.60;;;;;;4965739;28;20023;-73
2023/08/05 13:51:59;;;;;;;2.08;1.10;;;26.80;68.80;;;;;;4965700;29;20038;-73
2023/08/05 13:54:25;;;;;;;3.65;1.10;;;27.60;67.60;;;;;;4965597;29;20090;-73
2023/08/05 13:56:51;;;;;;;2.25;1.15;;;28.40;65.70;;;;;;4967019;29;20102;-73
2023/08/05 13:59:20;;;;;;;2.45;1.10;;;28.90;65.30;;;;;;4949819;29;20027;-73
2023/08/05 14:01:46;;;;;;;2.17;0.90;;;29.80;64.10;;;;;;4966549;28;20043;-74
2023/08/05 14:04:12;;;;;;;3.17;1.10;;;30.20;62.30;;;;;;4965830;29;20031;-74
2023/08/05 14:06:38;;;;;;;2.13;0.90;;;30.00;61.40;;;;;;4966289;28;20041;-72
2023/08/05 14:09:07;;;;;;;2.30;1.05;;;29.50;63.00;;;;;;4966660;29;20019;-72
2023/08/05 14:11:34;;;;;;;2.75;1.05;;;28.90;63.30;;;;;;4966459;28;20041;-72
2023/08/05 14:13:59;;;;;;;4.38;1.75;;;28.40;64.60;;;;;;4965633;29;20031;-74
2023/08/05 14:16:25;;;;;;;2.17;1.33;;;27.90;65.50;;;;;;4966105;28;20034;-74
2023/08/05 14:18:51;;;;;;;2.70;1.20;;;27.30;66.60;;;;;;4965659;29;20039;-74
2023/08/05 14:21:17;;;;;;;3.22;1.40;;;26.90;67.90;;;;;;4966407;28;20147;-74
2023/08/05 14:23:42;;;;;;;2.75;1.30;;;27.00;67.90;;;;;;4965133;29;20229;-73
2023/08/05 14:26:08;;;;;;;2.53;1.05;;;27.20;67.30;;;;;;4966403;29;20022;-72
2023/08/05 14:28:43;;;;;;;2.40;1.30;;;27.20;67.10;;;;;;4966210;29;20023;-72
2023/08/05 14:31:17;;;;;;;3.65;1.45;;;27.20;67.20;;;;;;4966109;28;20098;-73
2023/08/05 14:33:43;;;;;;;2.47;1.13;;;27.20;67.40;;;;;;4965808;28;20043;-73
2023/08/05 14:36:16;;;;;;;2.90;1.30;;;27.40;67.60;;;;;;4966312;28;20071;-72
2023/08/05 14:38:44;;;;;;;3.13;1.02;;;27.80;66.40;;;;;;4965438;29;20030;-72
2023/08/05 14:41:15;;;;;;;2.60;1.23;;;29.30;64.50;;;;;;4965001;29;20043;-73
2023/08/05 14:43:42;;;;;;;2.22;1.10;;;31.00;61.30;;;;;;4965633;28;20116;-73
2023/08/05 14:46:08;;;;;;;2.45;0.80;;;32.40;59.60;;;;;;4965089;29;20074;-73
2023/08/05 14:48:34;;;;;;;4.07;1.15;;;33.10;57.80;;;;;;4948597;29;20019;-74
2023/08/05 14:51:03;;;;;;;2.00;0.90;;;33.50;57.00;;;;;;4965852;29;20034;-73
2023/08/05 14:53:29;;;;;;;1.95;0.90;;;32.80;57.30;;;;;;4964218;29;20258;-72
2023/08/05 14:55:59;;;;;;;2.53;0.95;;;33.20;56.90;;;;;;4965958;28;20039;-71
2023/08/05 14:58:25;;;;;;;2.67;1.00;;;35.20;55.70;;;;;;4965937;29;20039;-73
2023/08/05 15:00:50;;;;;;;2.08;1.00;;;37.00;53.30;;;;;;4965263;28;20050;-73
2023/08/05 15:03:16;;;;;;;2.47;1.00;;;38.20;51.50;;;;;;4965862;29;20358;-72
2023/08/05 15:05:42;;;;;;;2.17;1.00;;;37.00;51.80;;;;;;4965430;29;20244;-74
2023/08/05 15:08:08;;;;;;;1.83;0.80;;;37.00;52.30;;;;;;4966076;28;20391;-73
2023/08/05 15:10:34;;;;;;;2.90;0.90;;;36.70;52.80;;;;;;4964364;29;20328;-72
2023/08/05 15:12:59;;;;;;;2.17;1.08;;;37.30;51.10;;;;;;4965695;28;20035;-72
2023/08/05 15:15:25;;;;;;;1.63;0.68;;;37.50;50.40;;;;;;4965485;29;20198;-73
2023/08/05 15:17:53;;;;;;;1.85;0.80;;;38.10;49.60;;;;;;4965650;28;20035;-73
2023/08/05 15:20:18;;;;;;;;;;;38.20;49.10;;;;;;4966187;28;20035;-73
2023/08/05 15:22:44;;;;;;;1.73;1.00;;;37.70;49.80;;;;;;4964950;28;19953;-74
2023/08/05 15:25:13;;;;;;;3.08;0.93;;;38.20;50.10;;;;;;4965575;29;20046;-75
2023/08/05 15:27:39;;;;;;;1.55;0.90;;;38.20;49.30;;;;;;4964720;29;20035;-74
2023/08/05 15:30:10;;;;;;;2.85;0.80;;;38.40;48.30;;;;;;4965672;29;20102;-73
2023/08/05 15:32:36;;;;;;;2.33;1.00;;;38.50;48.50;;;;;;4964817;28;20047;-74
2023/08/05 15:35:02;;;;;;;2.75;1.20;;;38.30;49.10;;;;;;4965187;28;20042;-73
2023/08/05 15:37:27;;;;;;;3.10;1.33;;;37.30;49.20;;;;;;4964865;29;20035;-75
2023/08/05 15:39:55;;;;;;;1.15;0.70;;;36.90;49.80;;;;;;4965330;29;20042;-73
2023/08/05 15:42:21;;;;;;;3.30;1.00;;;36.70;50.00;;;;;;4965317;28;20039;-73
2023/08/05 15:44:47;;;;;;;3.13;0.90;;;37.90;49.60;;;;;;4964362;29;20238;-73
2023/08/05 15:47:13;;;;;;;2.05;0.80;;;38.80;47.80;;;;;;4964969;29;20361;-72
2023/08/05 15:49:42;;;;;;;2.08;0.93;;;40.50;46.90;;;;;;4965080;29;20289;-72
2023/08/05 15:52:08;;;;;;;2.17;1.00;;;41.80;47.60;;;;;;4962618;29;24701;-73
2023/08/05 15:54:34;;;;;;;1.77;0.80;;;41.70;45.70;;;;;;4964474;28;20035;-75
2023/08/05 15:57:08;;;;;;;2.53;0.80;;;42.10;45.20;;;;;;4965270;29;20023;-72
2023/08/05 15:59:34;;;;;;;1.45;0.70;;;41.70;46.80;;;;;;4964395;28;20035;-74
2023/08/05 16:02:00;;;;;;;1.70;0.85;;;41.90;46.10;;;;;;4964757;28;20023;-74
2023/08/05 16:04:25;;;;;;;2.03;0.77;;;40.20;46.10;;;;;;4964639;28;20058;-76
2023/08/05 16:06:55;;;;;;;2.20;1.00;;;39.10;45.70;;;;;;4964521;29;20097;-74
2023/08/05 16:09:21;;;;;;;2.17;0.90;;;37.40;47.20;;;;;;4964699;28;20039;-73
2023/08/05 16:11:46;;;;;;;2.58;0.90;;;35.90;48.20;;;;;;4963710;28;20106;-71
2023/08/05 16:14:12;;;;;;;2.08;1.13;;;36.00;49.50;;;;;;4964692;28;20037;-72
2023/08/05 16:16:38;;;;;;;1.83;1.02;;;37.40;49.40;;;;;;4964510;28;20039;-76
2023/08/05 16:19:04;;;;;;;3.45;1.15;;;37.30;48.20;;;;;;4964412;29;20042;-76
2023/08/05 16:21:29;;;;;;;3.42;1.20;;;35.40;49.20;;;;;;4964334;28;20071;-78
2023/08/05 16:23:57;;;;;;;2.25;1.25;;;33.50;51.60;;;;;;4964184;29;20038;-77
2023/08/05 16:26:24;;;;;;;2.55;1.30;;;31.60;54.70;;;;;;4960396;29;20034;-76
2023/08/05 16:28:51;;;;;;;2.60;1.42;;;30.60;56.10;;;;;;4945008;29;20187;-74
2023/08/05 16:31:18;;;;;;;2.50;1.30;;;30.20;57.40;;;;;;4964736;28;20086;-77
2023/08/05 16:33:44;;;;;;;3.40;1.60;;;29.30;58.10;;;;;;4964224;28;20031;-76
2023/08/05 16:36:11;;;;;;;3.22;1.40;;;28.60;59.70;;;;;;4964671;28;20034;-75
2023/08/05 16:38:37;;;;;;;3.50;1.33;;;28.00;61.50;;;;;;4963846;28;20311;-76
2023/08/05 16:41:06;;;;;;;2.90;1.40;;;27.70;62.00;;;;;;4961465;29;20039;-75
2023/08/05 16:43:34;;;;;;;3.22;1.73;;;27.50;62.00;;;;;;4963597;28;20305;-76
2023/08/05 16:46:00;;;;;;;4.05;1.70;;;27.30;62.00;;;;;;4963180;29;20105;-75
2023/08/05 16:48:26;;;;;;;;;;;27.00;63.10;;;;;;4963569;29;20317;-76
2023/08/05 16:50:51;;;;;;;3.25;1.48;;;26.90;64.20;;;;;;4962906;29;19914;-77
2023/08/05 16:53:21;;;;;;;9.25;6.70;;;26.60;64.20;;;;;;4947597;29;20290;-75
2023/08/05 16:55:46;;;;;;;5.10;2.55;;;26.50;64.10;;;;;;4963704;28;20198;-76
2023/08/05 16:58:12;;;;;;;3.40;2.13;;;26.20;65.60;;;;;;4964117;29;20023;-77
2023/08/05 17:00:38;;;;;;;4.55;1.70;;;26.00;65.50;;;;;;4964260;29;20072;-76
2023/08/05 17:03:04;;;;;;;4.15;1.80;;;25.90;65.50;;;;;;4947192;29;20042;-78
2023/08/05 17:05:29;;;;;;;3.92;1.38;;;25.60;66.70;;;;;;4964188;29;20031;-78
2023/08/05 17:07:56;;;;;;;3.53;1.70;;;25.50;66.80;;;;;;4963588;28;20032;-77
2023/08/05 17:10:22;;;;;;;3.08;2.08;;;25.30;66.70;;;;;;4947658;29;20221;-78
2023/08/05 17:12:47;;;;;;;3.20;1.77;;;25.20;66.90;;;;;;4962377;29;20031;-77
2023/08/05 17:15:13;;;;;;;4.43;1.60;;;25.00;67.70;;;;;;4958404;28;20032;-79
2023/08/05 17:17:39;;;;;;;2.72;1.50;;;24.90;67.80;;;;;;4960984;29;20098;-78
2023/08/05 17:20:05;;;;;;;3.85;1.88;;;24.90;67.80;;;;;;4962876;28;20035;-77
2023/08/05 17:22:31;;;;;;;2.90;1.50;;;24.90;67.80;;;;;;4963936;28;20051;-76
2023/08/05 17:24:57;;;;;;;5.25;1.60;;;24.90;68.00;;;;;;4966472;28;20324;-75
2023/08/05 17:27:23;;;;;;;3.45;1.70;;;24.70;69.00;;;;;;4947271;29;20026;-76
2023/08/05 17:29:52;;;;;;;3.88;1.83;;;24.60;68.90;;;;;;4955773;29;20194;-74
2023/08/05 17:32:17;;;;;;;3.78;1.63;;;24.50;69.50;;;;;;4966071;29;20037;-75
2023/08/05 17:34:44;;;;;;;4.47;1.80;;;24.50;69.60;;;;;;4966656;29;20027;-77
2023/08/05 17:37:10;;;;;;;2.72;1.63;;;24.40;70.20;;;;;;4967494;28;20054;-76
2023/08/05 17:39:36;;;;;;;3.85;2.10;;;24.20;70.60;;;;;;4967121;28;20039;-75
2023/08/05 17:42:02;;;;;;;4.45;1.77;;;24.10;70.60;;;;;;4967606;29;20096;-76
2023/08/05 17:44:28;;;;;;;2.67;1.58;;;23.90;71.70;;;;;;4967423;29;20039;-75
2023/08/05 17:46:56;;;;;;;2.90;1.52;;;23.80;72.50;;;;;;4965703;29;20031;-77
2023/08/05 17:49:21;;;;;;;3.75;1.90;;;23.70;72.40;;;;;;4966068;29;20039;-75
2023/08/05 17:51:47;;;;;;;3.55;1.80;;;23.50;73.10;;;;;;4965725;29;20027;-73
2023/08/05 17:54:13;;;;;;;3.75;1.70;;;23.40;73.80;;;;;;4967037;28;20039;-75
2023/08/05 17:56:39;;;;;;;3.25;1.80;;;23.30;73.70;;;;;;4966529;29;20030;-75
2023/08/05 17:59:05;;;;;;;3.58;1.90;;;23.20;73.60;;;;;;4949976;29;20027;-75
2023/08/05 18:01:34;;;;;;;3.17;1.75;;;23.10;74.70;;;;;;4949993;29;20028;-76
2023/08/05 18:04:00;;;;;;;4.43;1.83;;;23.00;74.80;;;;;;4948931;29;20031;-74
2023/08/05 18:06:26;;;;;;;4.15;1.75;;;22.90;74.60;;;;;;4949883;29;20027;-75
2023/08/05 18:08:52;;;;;;;4.63;2.10;;;22.80;74.80;;;;;;4949353;29;20034;-74
2023/08/05 18:11:18;;;;;;;3.72;2.10;;;22.80;75.70;;;;;;4965690;29;20030;-73
2023/08/05 18:13:46;;;;;;;3.92;2.30;;;22.70;76.80;;;;;;4965378;29;20043;-72
2023/08/05 18:16:12;;;;;;;4.68;1.90;;;22.60;78.00;;;;;;4966359;28;20039;-74
2023/08/05 18:18:38;;;;;;;3.10;1.90;;;22.40;81.40;;;;;;4964977;29;20031;-75
2023/08/05 18:21:04;;;;;;;2.78;1.70;;;22.10;85.50;;;;;;4949283;29;20062;-75
2023/08/05 18:23:30;;;;;;;4.55;2.20;;;21.60;88.50;;;;;;4966503;29;20035;-76
2023/08/05 18:26:00;;;;;;;3.58;2.13;;;21.00;90.70;;;;;;4964713;29;20015;-75
2023/08/05 18:28:30;;;;;;;3.65;2.00;;;20.30;93.30;;;;;;4949253;29;20035;-74
2023/08/05 18:30:56;;;;;;;4.47;2.15;;;19.60;95.20;;;;;;4959257;29;20023;-76
2023/08/05 18:33:22;;;;;;;6.63;2.88;;;19.10;96.60;;;;;;4930370;29;20030;-76
2023/08/05 18:35:48;;;;;;;4.30;2.58;;;18.80;97.70;;;;;;4957472;29;20058;-78
2023/08/05 18:38:15;;;;;;;5.60;3.05;;;18.60;98.80;;;;;;4949110;29;20031;-76
2023/08/05 18:40:41;;;;;;;6.47;3.10;;;18.50;99.40;;;;;;4948952;29;20023;-74
2023/08/05 18:43:06;;;;;;;4.60;2.72;;;18.40;99.90;;;;;;4966120;29;20058;-77
2023/08/05 18:45:33;;;;;;;5.15;3.10;;;18.50;99.40;;;;;;4966317;29;20074;-76
2023/08/05 18:48:00;;;;;;;6.03;3.05;;;18.40;99.50;;;;;;4964459;29;20043;-75
2023/08/05 18:50:27;;;;;;;5.43;3.03;;;18.50;99.90;;;;;;4954961;28;20027;-75
2023/08/05 18:52:53;;;;;;;5.15;2.65;;;18.50;99.70;;;;;;4945811;29;20024;-75
2023/08/05 18:55:18;;;;;;;3.63;2.35;;;18.60;99.60;;;;;;4954026;29;20217;-75
2023/08/05 18:57:45;;;;;;;5.25;2.88;;;18.60;99.80;;;;;;4965773;28;20034;-76
2023/08/05 19:00:11;;;;;;;5.20;2.45;;;18.60;99.80;;;;;;4965728;28;20026;-75
2023/08/05 19:02:37;;;;;;;4.63;2.40;;;18.70;99.30;;;;;;4965791;29;20039;-74
2023/08/05 19:05:02;;;;;;;4.53;2.78;;;18.70;99.40;;;;;;4965728;29;20027;-76
2023/08/05 19:07:30;;;;;;;4.80;2.80;;;18.60;99.70;;;;;;4965777;29;20042;-76
2023/08/05 19:09:56;;;;;;;6.00;3.40;;;18.70;99.90;;;;;;4965618;28;20035;-76
2023/08/05 19:12:22;;;;;;;6.28;3.45;;;18.60;99.90;;;;;;4964876;29;20043;-75
2023/08/05 19:14:48;;;;;;;4.55;2.83;;;18.50;99.90;;;;;;4965511;28;20075;-74
2023/08/05 19:17:13;;;;;;;6.22;3.20;;;18.40;99.90;;;;;;4965487;28;20038;-77
2023/08/05 19:19:39;;;;;;;5.20;2.90;;;18.30;99.90;;;;;;4965517;29;20304;-76
2023/08/05 19:22:06;;;;;;;5.00;2.78;;;18.20;99.90;;;;;;4963786;28;20114;-76
2023/08/05 19:24:32;;;;;;;6.43;2.63;;;18.20;99.90;;;;;;4965705;28;20035;-75
2023/08/05 19:26:58;;;;;;;4.57;2.85;;;18.10;99.90;;;;;;4964755;28;20031;-75
2023/08/05 19:29:23;;;;;;;4.15;2.90;;;18.20;99.90;;;;;;4965530;28;20027;-76
2023/08/05 19:31:49;;;;;;;5.32;3.17;;;18.30;99.90;;;;;;4965130;28;20301;-77
2023/08/05 19:34:15;;;;;;;4.32;2.75;;;18.40;99.90;;;;;;4965544;28;20039;-74
2023/08/05 19:36:41;;;;;;;4.65;3.00;;;18.40;99.90;;;;;;4965560;29;20373;-75
2023/08/05 19:39:06;;;;;;;5.63;3.75;;;18.40;99.90;;;;;;4965174;28;20313;-75
2023/08/05 19:41:32;;;;;;;8.02;3.90;;;18.40;99.90;;;;;;4965496;28;20094;-74
2023/08/05 19:43:58;;;;;;;5.55;3.28;;;18.40;99.90;;;;;;4963987;29;20054;-76
2023/08/05 19:46:24;;;;;;;5.20;3.20;;;18.30;99.90;;;;;;4964999;28;20034;-77
2023/08/05 19:48:50;;;;;;;5.28;2.97;;;18.30;99.90;;;;;;4964829;28;20035;-75
2023/08/05 19:51:16;;;;;;;4.47;2.83;;;18.40;99.90;;;;;;4964929;29;20027;-76
2023/08/05 19:53:45;;;;;;;6.75;3.55;;;18.30;99.90;;;;;;4965154;29;20039;-76
2023/08/05 19:56:12;;;;;;;4.93;2.83;;;18.30;99.90;;;;;;4964974;28;20031;-76
2023/08/05 19:58:37;;;;;;;4.65;3.10;;;18.20;99.90;;;;;;4965036;28;20094;-75
2023/08/05 20:01:03;;;;;;;4.50;2.92;;;18.20;99.90;;;;;;4964319;29;20031;-76
2023/08/05 20:03:29;;;;;;;7.63;3.10;;;18.20;99.90;;;;;;4963884;29;20071;-76
2023/08/05 20:05:55;;;;;;;6.00;3.40;;;18.10;99.90;;;;;;4963638;28;20035;-75
2023/08/05 20:08:22;;;;;;;5.32;3.17;;;18.00;99.90;;;;;;4963313;29;20046;-75
2023/08/05 20:10:48;;;;;;;6.40;3.60;;;18.00;99.90;;;;;;4959781;29;20317;-73
2023/08/05 20:13:14;;;;;;;5.72;3.30;;;18.00;99.90;;;;;;4963682;29;20036;-76
2023/08/05 20:15:41;;;;;;;4.38;2.90;;;17.90;99.90;;;;;;4964999;28;20376;-75
2023/08/05 20:18:07;;;;;;;5.28;2.90;;;17.90;99.90;;;;;;4964371;29;20027;-74
2023/08/05 20:20:33;;;;;;;4.72;2.90;;;17.90;99.90;;;;;;4964230;28;20038;-75
2023/08/05 20:22:59;;;;;;;6.05;3.50;;;17.90;99.90;;;;;;4963651;28;20049;-75
2023/08/05 20:25:25;;;;;;;5.88;4.00;;;17.90;99.90;;;;;;4964127;29;20098;-74
2023/08/05 20:27:51;;;;;;;7.72;4.18;;;17.90;99.90;;;;;;4962477;28;21250;-74
2023/08/05 20:30:17;;;;;;;4.80;3.28;;;17.80;99.90;;;;;;4964622;29;20055;-74
2023/08/05 20:32:43;;;;;;;4.68;3.00;;;17.80;99.90;;;;;;4964661;29;20070;-74
2023/08/05 20:35:09;;;;;;;5.03;3.00;;;17.70;99.90;;;;;;4963782;29;20086;-75
2023/08/05 20:37:35;;;;;;;5.75;2.83;;;17.70;99.90;;;;;;4964484;28;20302;-73
2023/08/05 20:40:04;;;;;;;4.28;3.03;;;17.80;99.90;;;;;;4964009;29;20143;-76
2023/08/05 20:42:31;;;;;;;3.92;3.00;;;17.70;99.90;;;;;;4963421;29;20058;-76
2023/08/05 20:44:56;;;;;;;4.60;2.75;;;17.70;99.90;;;;;;4964128;29;20055;-73
2023/08/05 20:47:22;;;;;;;4.82;3.35;;;17.60;99.90;;;;;;4964815;28;20031;-74
2023/08/05 20:49:48;;;;;;;4.80;2.95;;;17.60;99.90;;;;;;4964198;29;20322;-73
2023/08/05 20:52:13;;;;;;;5.35;3.13;;;17.60;99.90;;;;;;4964389;29;20034;-75
2023/08/05 20:54:39;;;;;;;5.97;3.40;;;17.60;99.90;;;;;;4964223;29;20038;-73
2023/08/05 20:57:05;;;;;;;6.25;3.30;;;17.60;99.90;;;;;;4946941;28;20050;-74
2023/08/05 20:59:31;;;;;;;4.43;2.92;;;17.70;99.90;;;;;;4967214;28;20027;-75
2023/08/05 21:01:57;;;;;;;5.90;3.65;;;17.70;99.90;;;;;;4967575;29;20083;-74
2023/08/05 21:04:22;;;;;;;10.55;4.20;;;17.70;99.90;;;;;;4967904;28;20313;-73
2023/08/05 21:06:48;;;;;;;5.88;3.22;;;17.60;99.90;;;;;;4967880;29;20035;-75
2023/08/05 21:09:14;;;;;;;4.88;3.55;;;17.50;99.90;;;;;;4966849;29;20035;-73
2023/08/05 21:11:40;;;;;;;4.43;2.92;;;17.50;99.90;;;;;;4968332;29;20269;-74
2023/08/05 21:14:05;;;;;;;4.30;2.22;;;17.40;99.90;;;;;;4967419;28;20035;-73
2023/08/05 21:16:31;;;;;;;3.45;2.42;;;17.20;99.90;;;;;;4968145;28;20264;-74
2023/08/05 21:18:58;;;;;;;3.90;2.65;;;17.10;99.90;;;;;;4967132;29;20090;-73
2023/08/05 21:21:24;;;;;;;5.25;2.75;;;16.80;99.90;;;;;;4967450;28;20316;-74
2023/08/05 21:23:52;;;;;;;3.45;2.67;;;16.70;99.90;;;;;;4967495;28;20039;-73
2023/08/05 21:26:18;;;;;;;;;;;16.50;99.90;;;;;;4968302;29;20029;-74
2023/08/05 21:28:44;;;;;;;4.03;2.95;;;16.50;99.90;;;;;;4967633;28;20234;-73
2023/08/05 21:31:13;;;;;;;4.85;3.38;;;16.40;99.90;;;;;;4965645;29;20027;-74
2023/08/05 21:33:38;;;;;;;4.45;2.67;;;16.50;99.90;;;;;;4967479;29;20043;-73
2023/08/05 21:36:04;;;;;;;5.13;3.35;;;16.50;99.90;;;;;;4966777;29;20038;-74
2023/08/05 21:38:30;;;;;;;5.10;3.03;;;16.50;99.90;;;;;;4967864;28;20039;-73
2023/08/05 21:40:56;;;;;;;6.68;3.58;;;16.50;99.90;;;;;;4965860;29;20027;-74
2023/08/05 21:43:22;;;;;;;5.68;3.45;;;16.50;99.90;;;;;;4967301;28;20031;-75
2023/08/05 21:45:49;;;;;;;5.50;3.88;;;16.50;99.90;;;;;;4967526;28;20021;-73
2023/08/05 21:48:15;;;;;;;4.93;3.60;;;16.50;99.90;;;;;;4967571;29;20031;-74
2023/08/05 21:50:41;;;;;;;4.90;3.58;;;16.60;99.90;;;;;;4967481;28;20139;-73
2023/08/05 21:53:07;;;;;;;5.93;3.30;;;16.50;99.90;;;;;;4966711;28;20102;-74
2023/08/05 21:55:35;;;;;;;7.05;4.13;;;16.60;99.90;;;;;;4967211;28;20030;-73
2023/08/05 21:58:04;;;;;;;5.13;3.25;;;16.60;99.90;;;;;;4966795;28;20078;-75
2023/08/05 22:00:31;;;;;;;4.18;2.63;;;16.60;99.90;;;;;;4963411;29;20106;-74
2023/08/05 22:02:57;;;;;;;5.82;3.30;;;16.60;99.90;;;;;;4965387;28;20043;-73
2023/08/05 22:05:23;;;;;;;5.85;3.53;;;16.70;99.90;;;;;;4967301;29;20228;-74
2023/08/05 22:07:49;;;;;;;5.68;3.70;;;16.70;99.90;;;;;;4967071;28;20038;-74
2023/08/05 22:10:15;;;;;;;6.43;3.65;;;16.70;99.90;;;;;;4964896;28;20284;-74
2023/08/05 22:12:41;;;;;;;5.45;3.83;;;16.70;99.90;;;;;;4967387;29;20031;-74
2023/08/05 22:15:08;;;;;;;6.20;3.95;;;16.70;99.90;;;;;;4966500;28;20023;-74
2023/08/05 22:17:33;;;;;;;5.30;3.60;;;16.70;99.90;;;;;;4966888;29;20330;-74
2023/08/05 22:19:59;;;;;;;5.00;3.55;;;16.70;99.90;;;;;;4966120;29;20027;-74
2023/08/05 22:22:25;;;;;;;8.55;4.32;;;16.60;99.90;;;;;;4967104;28;20202;-75
2023/08/05 22:24:54;;;;;;;11.55;6.05;;;16.60;99.90;;;;;;4965373;29;20116;-73
2023/08/05 22:30:33;;;;;;;6.67;4.13;;;16.60;99.90;;;;;;4954753;28;20119;-78
2023/08/05 22:33:27;;;;;;;7.55;4.65;;;16.50;99.90;;;;;;4965188;29;20102;-77
2023/08/05 22:35:56;;;;;;;5.88;3.78;;;16.50;99.90;;;;;;4965914;28;20030;-75
2023/08/05 22:38:27;;;;;;;6.55;3.60;;;16.50;99.90;;;;;;4966296;28;20023;-75
2023/08/05 22:41:02;;;;;;;6.85;3.60;;;16.50;99.90;;;;;;4964793;29;20024;-75
2023/08/05 22:43:33;;;;;;;5.68;3.72;;;16.60;99.90;;;;;;4966089;29;20114;-75
2023/08/05 22:46:03;;;;;;;5.70;3.63;;;16.60;99.90;;;;;;4964869;29;20026;-75
2023/08/05 22:48:31;;;;;;;6.30;3.30;;;16.60;99.90;;;;;;4965412;29;20245;-75
2023/08/05 22:51:00;;;;;;;6.35;3.40;;;16.50;99.90;;;;;;4965760;28;20042;-76
2023/08/05 22:53:33;;;;;;;5.72;3.60;;;16.50;99.90;;;;;;4965917;29;20306;-75
2023/08/05 22:56:08;;;;;;;5.90;3.75;;;16.50;99.90;;;;;;4965876;29;20301;-75
2023/08/05 22:58:36;;;;;;;5.78;3.95;;;16.50;99.90;;;;;;4966160;28;20028;-75
2023/08/05 23:03:58;;;;;;;5.40;3.45;;;16.50;99.90;;;;;;4964463;28;20363;-76
2023/08/05 23:06:24;;;;;;;6.72;3.58;;;16.40;99.90;;;;;;4965670;29;20043;-76
2023/08/05 23:09:01;;;;;;;5.50;3.45;;;16.50;99.90;;;;;;4964174;29;20029;-75
2023/08/05 23:11:47;;;;;;;6.20;3.85;;;16.50;99.90;;;;;;4964845;29;20090;-75
2023/08/05 23:14:36;;;;;;;4.68;3.28;;;16.60;99.90;;;;;;4961209;28;20286;-76
2023/08/05 23:17:06;;;;;;;4.97;3.88;;;16.50;99.90;;;;;;4964332;29;20128;-75
2023/08/05 23:19:38;;;;;;;5.30;3.75;;;16.60;99.90;;;;;;4965457;29;20333;-75
2023/08/05 23:22:12;;;;;;;6.03;4.07;;;16.60;99.90;;;;;;4963944;28;20081;-76
2023/08/05 23:24:44;;;;;;;5.22;4.07;;;16.70;99.90;;;;;;4965417;29;20039;-75
2023/08/05 23:27:16;;;;;;;6.57;3.85;;;16.70;99.90;;;;;;4964077;29;20047;-77
2023/08/05 23:29:57;;;;;;;6.80;3.83;;;16.70;99.90;;;;;;4964159;29;20031;-75
2023/08/05 23:33:02;;;;;;;7.60;3.95;;;16.60;99.90;;;;;;4964661;28;20046;-75
2023/08/05 23:36:05;;;;;;;4.68;3.63;;;16.70;99.90;;;;;;4936236;29;20384;-76
2023/08/05 23:38:33;;;;;;;5.97;3.35;;;16.60;99.90;;;;;;4964389;29;20336;-76
2023/08/05 23:41:09;;;;;;;6.15;3.53;;;16.60;99.90;;;;;;4964781;29;20034;-75
2023/08/05 23:43:38;;;;;;;6.25;4.53;;;16.70;99.90;;;;;;4965273;29;20054;-76
2023/08/05 23:46:25;;;;;;;5.55;4.07;;;16.70;99.90;;;;;;4965119;29;20050;-76
2023/08/05 23:48:51;;;;;;;7.60;5.18;;;16.80;99.90;;;;;;4982608;28;20042;-76
2023/08/05 23:51:17;;;;;;;7.55;4.60;;;16.80;99.90;;;;;;4985768;28;20030;-76
2023/08/05 23:53:49;;;;;;;5.78;4.38;;;16.80;99.90;;;;;;4986569;28;20030;-76